Dormazlice, Czech Republic
Current Conditions -  °F | °C
As of 12:00 PM on Wednesday 26 Nov 2014 (Local Time) from LKLN Reporting Station
Overcast Overcast  
Wind Chill: 30°   Ceiling: 1800
Heat Index: 37°   Visibility: 6mi
Dew Point: 32°   Wind: 12mph
Humidity: 81%   Direction: 120°ESE
Pressure: 30.15"   Gusts: NA
Location:  49.44°N, 12.93°E
Report Text: LKLN 261000Z AUTO 12010KT 080V150 9999 OVC018 03/M00 Q1021
Loading
Personal Weather Stations






























Interactive Weather Map New forecast layout! Learn more

10-Day Weather Forecast

Advertisements
Track Severe Weather on mobile